sensor_id;sensor_type;location;lat;lon;timestamp;P1;durP1;ratioP1;P2;durP2;ratioP2
64282;SDS011;50497;50.720;-2.084;2024-03-07T00:00:41;45.65;;;19.10;;
64282;SDS011;50497;50.720;-2.084;2024-03-07T00:03:07;43.75;;;17.42;;
64282;SDS011;50497;50.720;-2.084;2024-03-07T00:05:33;53.42;;;18.85;;
64282;SDS011;50497;50.720;-2.084;2024-03-07T00:07:58;46.88;;;18.05;;
64282;SDS011;50497;50.720;-2.084;2024-03-07T00:10:24;39.92;;;16.00;;
64282;SDS011;50497;50.720;-2.084;2024-03-07T00:12:49;47.30;;;18.40;;
64282;SDS011;50497;50.720;-2.084;2024-03-07T00:15:15;44.75;;;18.00;;
64282;SDS011;50497;50.720;-2.084;2024-03-07T00:17:41;44.58;;;18.05;;
64282;SDS011;50497;50.720;-2.084;2024-03-07T00:20:06;45.72;;;18.13;;
64282;SDS011;50497;50.720;-2.084;2024-03-07T00:22:39;41.30;;;16.83;;
64282;SDS011;50497;50.720;-2.084;2024-03-07T00:25:07;40.95;;;15.32;;
64282;SDS011;50497;50.720;-2.084;2024-03-07T00:27:34;40.97;;;15.32;;
64282;SDS011;50497;50.720;-2.084;2024-03-07T00:32:26;34.72;;;14.32;;
64282;SDS011;50497;50.720;-2.084;2024-03-07T00:34:55;43.25;;;16.52;;
64282;SDS011;50497;50.720;-2.084;2024-03-07T00:37:22;47.60;;;16.10;;
64282;SDS011;50497;50.720;-2.084;2024-03-07T00:39:49;48.38;;;17.30;;
64282;SDS011;50497;50.720;-2.084;2024-03-07T00:42:15;43.35;;;15.02;;
64282;SDS011;50497;50.720;-2.084;2024-03-07T00:44:40;44.75;;;16.70;;
64282;SDS011;50497;50.720;-2.084;2024-03-07T00:47:06;43.28;;;15.43;;
64282;SDS011;50497;50.720;-2.084;2024-03-07T00:49:31;40.72;;;14.98;;
64282;SDS011;50497;50.720;-2.084;2024-03-07T00:52:00;45.92;;;16.77;;
64282;SDS011;50497;50.720;-2.084;2024-03-07T00:54:25;43.53;;;14.93;;
64282;SDS011;50497;50.720;-2.084;2024-03-07T00:56:51;38.80;;;13.90;;
64282;SDS011;50497;50.720;-2.084;2024-03-07T00:59:16;39.22;;;14.73;;
64282;SDS011;50497;50.720;-2.084;2024-03-07T01:01:42;39.42;;;14.23;;
64282;SDS011;50497;50.720;-2.084;2024-03-07T01:04:07;39.47;;;14.68;;
64282;SDS011;50497;50.720;-2.084;2024-03-07T01:06:33;43.50;;;14.45;;
64282;SDS011;50497;50.720;-2.084;2024-03-07T01:09:02;39.92;;;15.02;;
64282;SDS011;50497;50.720;-2.084;2024-03-07T01:11:28;41.25;;;14.90;;
64282;SDS011;50497;50.720;-2.084;2024-03-07T01:13:54;38.10;;;13.52;;
64282;SDS011;50497;50.720;-2.084;2024-03-07T01:16:20;43.13;;;15.25;;
64282;SDS011;50497;50.720;-2.084;2024-03-07T01:18:46;44.25;;;14.70;;
64282;SDS011;50497;50.720;-2.084;2024-03-07T01:21:11;45.65;;;15.38;;
64282;SDS011;50497;50.720;-2.084;2024-03-07T01:23:36;47.13;;;14.82;;
64282;SDS011;50497;50.720;-2.084;2024-03-07T01:26:02;51.10;;;15.02;;
64282;SDS011;50497;50.720;-2.084;2024-03-07T01:28:28;58.33;;;16.67;;
64282;SDS011;50497;50.720;-2.084;2024-03-07T01:30:55;59.10;;;16.77;;
64282;SDS011;50497;50.720;-2.084;2024-03-07T01:33:24;73.93;;;16.75;;
64282;SDS011;50497;50.720;-2.084;2024-03-07T01:35:49;69.80;;;17.33;;
64282;SDS011;50497;50.720;-2.084;2024-03-07T01:38:15;55.92;;;15.80;;
64282;SDS011;50497;50.720;-2.084;2024-03-07T01:40:42;61.65;;;17.35;;
64282;SDS011;50497;50.720;-2.084;2024-03-07T01:45:34;60.75;;;16.50;;
64282;SDS011;50497;50.720;-2.084;2024-03-07T01:48:05;57.05;;;15.57;;
64282;SDS011;50497;50.720;-2.084;2024-03-07T01:50:35;61.90;;;16.80;;
64282;SDS011;50497;50.720;-2.084;2024-03-07T01:53:04;56.85;;;16.13;;
64282;SDS011;50497;50.720;-2.084;2024-03-07T01:55:31;71.20;;;17.70;;
64282;SDS011;50497;50.720;-2.084;2024-03-07T01:57:59;56.85;;;15.95;;
64282;SDS011;50497;50.720;-2.084;2024-03-07T02:00:26;70.68;;;16.83;;
64282;SDS011;50497;50.720;-2.084;2024-03-07T02:02:53;60.05;;;15.95;;
64282;SDS011;50497;50.720;-2.084;2024-03-07T02:05:19;61.88;;;16.85;;
64282;SDS011;50497;50.720;-2.084;2024-03-07T02:07:45;63.17;;;16.15;;
64282;SDS011;50497;50.720;-2.084;2024-03-07T02:10:10;61.65;;;16.02;;
64282;SDS011;50497;50.720;-2.084;2024-03-07T02:12:35;48.35;;;13.95;;
64282;SDS011;50497;50.720;-2.084;2024-03-07T02:15:01;63.03;;;16.35;;
64282;SDS011;50497;50.720;-2.084;2024-03-07T02:17:27;68.53;;;17.10;;
64282;SDS011;50497;50.720;-2.084;2024-03-07T02:19:53;54.63;;;15.00;;
64282;SDS011;50497;50.720;-2.084;2024-03-07T02:22:19;53.53;;;15.60;;
64282;SDS011;50497;50.720;-2.084;2024-03-07T02:24:45;57.08;;;16.27;;
64282;SDS011;50497;50.720;-2.084;2024-03-07T02:27:14;51.83;;;14.70;;
64282;SDS011;50497;50.720;-2.084;2024-03-07T02:29:40;53.58;;;15.40;;
64282;SDS011;50497;50.720;-2.084;2024-03-07T02:34:31;46.67;;;13.65;;
64282;SDS011;50497;50.720;-2.084;2024-03-07T02:36:57;46.95;;;14.27;;
64282;SDS011;50497;50.720;-2.084;2024-03-07T02:39:22;39.45;;;14.10;;
64282;SDS011;50497;50.720;-2.084;2024-03-07T02:41:47;47.88;;;14.73;;
64282;SDS011;50497;50.720;-2.084;2024-03-07T02:44:13;48.58;;;14.05;;
64282;SDS011;50497;50.720;-2.084;2024-03-07T02:46:39;44.05;;;13.70;;
64282;SDS011;50497;50.720;-2.084;2024-03-07T02:49:05;48.22;;;14.23;;
64282;SDS011;50497;50.720;-2.084;2024-03-07T02:51:30;43.95;;;13.68;;
64282;SDS011;50497;50.720;-2.084;2024-03-07T02:53:56;43.92;;;13.80;;
64282;SDS011;50497;50.720;-2.084;2024-03-07T02:56:22;41.72;;;13.40;;
64282;SDS011;50497;50.720;-2.084;2024-03-07T02:58:48;39.28;;;14.18;;
64282;SDS011;50497;50.720;-2.084;2024-03-07T03:01:13;47.25;;;15.13;;
64282;SDS011;50497;50.720;-2.084;2024-03-07T03:03:39;41.25;;;14.48;;
64282;SDS011;50497;50.720;-2.084;2024-03-07T03:06:07;47.67;;;15.27;;
64282;SDS011;50497;50.720;-2.084;2024-03-07T03:08:33;44.85;;;14.10;;
64282;SDS011;50497;50.720;-2.084;2024-03-07T03:11:00;43.65;;;14.68;;
64282;SDS011;50497;50.720;-2.084;2024-03-07T03:13:25;41.03;;;13.48;;
64282;SDS011;50497;50.720;-2.084;2024-03-07T03:15:54;42.40;;;13.65;;
64282;SDS011;50497;50.720;-2.084;2024-03-07T03:18:23;41.92;;;14.00;;
64282;SDS011;50497;50.720;-2.084;2024-03-07T03:20:49;39.70;;;14.20;;
64282;SDS011;50497;50.720;-2.084;2024-03-07T03:23:15;41.75;;;14.00;;
64282;SDS011;50497;50.720;-2.084;2024-03-07T03:25:41;43.88;;;14.30;;
64282;SDS011;50497;50.720;-2.084;2024-03-07T03:28:07;41.38;;;13.52;;
64282;SDS011;50497;50.720;-2.084;2024-03-07T03:30:36;43.33;;;13.55;;
64282;SDS011;50497;50.720;-2.084;2024-03-07T03:33:02;42.42;;;14.40;;
64282;SDS011;50497;50.720;-2.084;2024-03-07T03:35:28;38.58;;;13.25;;
64282;SDS011;50497;50.720;-2.084;2024-03-07T03:37:53;42.53;;;15.45;;
64282;SDS011;50497;50.720;-2.084;2024-03-07T03:40:19;40.13;;;14.20;;
64282;SDS011;50497;50.720;-2.084;2024-03-07T03:42:44;42.50;;;14.77;;
64282;SDS011;50497;50.720;-2.084;2024-03-07T03:45:10;39.55;;;14.38;;
64282;SDS011;50497;50.720;-2.084;2024-03-07T03:47:39;44.25;;;15.00;;
64282;SDS011;50497;50.720;-2.084;2024-03-07T03:50:05;40.92;;;13.57;;
64282;SDS011;50497;50.720;-2.084;2024-03-07T03:52:31;41.13;;;13.90;;
64282;SDS011;50497;50.720;-2.084;2024-03-07T03:54:58;42.20;;;14.68;;
64282;SDS011;50497;50.720;-2.084;2024-03-07T03:57:24;42.03;;;14.27;;
64282;SDS011;50497;50.720;-2.084;2024-03-07T03:59:50;46.20;;;15.18;;
64282;SDS011;50497;50.720;-2.084;2024-03-07T04:02:16;40.65;;;13.20;;
64282;SDS011;50497;50.720;-2.084;2024-03-07T04:04:44;42.67;;;14.25;;
64282;SDS011;50497;50.720;-2.084;2024-03-07T04:07:13;49.63;;;15.02;;
64282;SDS011;50497;50.720;-2.084;2024-03-07T04:09:38;47.28;;;14.63;;
64282;SDS011;50497;50.720;-2.084;2024-03-07T04:12:04;42.63;;;15.05;;
64282;SDS011;50497;50.720;-2.084;2024-03-07T04:14:30;46.92;;;14.40;;
64282;SDS011;50497;50.720;-2.084;2024-03-07T04:16:58;44.80;;;14.35;;
64282;SDS011;50497;50.720;-2.084;2024-03-07T04:19:23;39.60;;;12.88;;
64282;SDS011;50497;50.720;-2.084;2024-03-07T04:21:50;43.85;;;14.48;;
64282;SDS011;50497;50.720;-2.084;2024-03-07T04:24:16;46.95;;;14.40;;
64282;SDS011;50497;50.720;-2.084;2024-03-07T04:26:42;47.15;;;15.00;;
64282;SDS011;50497;50.720;-2.084;2024-03-07T04:29:07;45.42;;;15.05;;
64282;SDS011;50497;50.720;-2.084;2024-03-07T04:31:36;49.55;;;15.80;;
64282;SDS011;50497;50.720;-2.084;2024-03-07T04:34:02;43.33;;;14.07;;
64282;SDS011;50497;50.720;-2.084;2024-03-07T04:36:27;46.08;;;14.98;;
64282;SDS011;50497;50.720;-2.084;2024-03-07T04:38:54;46.95;;;15.45;;
64282;SDS011;50497;50.720;-2.084;2024-03-07T04:41:20;48.67;;;15.35;;
64282;SDS011;50497;50.720;-2.084;2024-03-07T04:43:46;51.30;;;15.50;;
64282;SDS011;50497;50.720;-2.084;2024-03-07T04:46:11;54.55;;;15.85;;
64282;SDS011;50497;50.720;-2.084;2024-03-07T04:48:37;46.53;;;15.90;;
64282;SDS011;50497;50.720;-2.084;2024-03-07T04:51:02;47.60;;;15.40;;
64282;SDS011;50497;50.720;-2.084;2024-03-07T04:53:28;49.15;;;16.30;;
64282;SDS011;50497;50.720;-2.084;2024-03-07T04:55:54;46.78;;;14.75;;
64282;SDS011;50497;50.720;-2.084;2024-03-07T04:58:19;47.58;;;14.75;;
64282;SDS011;50497;50.720;-2.084;2024-03-07T05:00:44;42.58;;;14.75;;
64282;SDS011;50497;50.720;-2.084;2024-03-07T05:03:10;39.78;;;13.35;;
64282;SDS011;50497;50.720;-2.084;2024-03-07T05:05:36;43.75;;;14.65;;
64282;SDS011;50497;50.720;-2.084;2024-03-07T05:08:01;47.65;;;14.60;;
64282;SDS011;50497;50.720;-2.084;2024-03-07T05:10:29;44.65;;;13.57;;
64282;SDS011;50497;50.720;-2.084;2024-03-07T05:12:55;44.00;;;13.20;;
64282;SDS011;50497;50.720;-2.084;2024-03-07T05:15:23;43.28;;;13.77;;
64282;SDS011;50497;50.720;-2.084;2024-03-07T05:17:51;45.72;;;14.50;;
64282;SDS011;50497;50.720;-2.084;2024-03-07T05:20:17;46.58;;;13.90;;
64282;SDS011;50497;50.720;-2.084;2024-03-07T05:22:42;44.33;;;13.93;;
64282;SDS011;50497;50.720;-2.084;2024-03-07T05:25:17;39.60;;;14.05;;
64282;SDS011;50497;50.720;-2.084;2024-03-07T05:27:44;41.72;;;14.10;;
64282;SDS011;50497;50.720;-2.084;2024-03-07T05:30:16;37.85;;;12.80;;
64282;SDS011;50497;50.720;-2.084;2024-03-07T05:32:42;48.17;;;13.32;;
64282;SDS011;50497;50.720;-2.084;2024-03-07T05:35:08;41.72;;;14.18;;
64282;SDS011;50497;50.720;-2.084;2024-03-07T05:37:34;45.67;;;14.52;;
64282;SDS011;50497;50.720;-2.084;2024-03-07T05:39:59;40.88;;;12.98;;
64282;SDS011;50497;50.720;-2.084;2024-03-07T05:42:25;41.00;;;13.85;;
64282;SDS011;50497;50.720;-2.084;2024-03-07T05:44:51;41.28;;;14.25;;
64282;SDS011;50497;50.720;-2.084;2024-03-07T05:47:19;38.72;;;13.98;;
64282;SDS011;50497;50.720;-2.084;2024-03-07T05:49:44;38.88;;;13.20;;
64282;SDS011;50497;50.720;-2.084;2024-03-07T05:52:09;46.97;;;14.25;;
64282;SDS011;50497;50.720;-2.084;2024-03-07T05:54:35;39.35;;;12.80;;
64282;SDS011;50497;50.720;-2.084;2024-03-07T05:57:01;41.40;;;13.75;;
64282;SDS011;50497;50.720;-2.084;2024-03-07T05:59:27;34.35;;;11.90;;
64282;SDS011;50497;50.720;-2.084;2024-03-07T06:01:56;37.90;;;12.90;;
64282;SDS011;50497;50.720;-2.084;2024-03-07T06:04:22;37.22;;;13.05;;
64282;SDS011;50497;50.720;-2.084;2024-03-07T06:06:47;35.83;;;12.27;;
64282;SDS011;50497;50.720;-2.084;2024-03-07T06:09:13;37.15;;;13.80;;
64282;SDS011;50497;50.720;-2.084;2024-03-07T06:11:39;39.17;;;12.93;;
64282;SDS011;50497;50.720;-2.084;2024-03-07T06:14:08;35.88;;;12.65;;
64282;SDS011;50497;50.720;-2.084;2024-03-07T06:16:37;40.45;;;13.85;;
64282;SDS011;50497;50.720;-2.084;2024-03-07T06:19:04;39.83;;;13.90;;
64282;SDS011;50497;50.720;-2.084;2024-03-07T06:21:33;37.72;;;13.02;;
64282;SDS011;50497;50.720;-2.084;2024-03-07T06:24:00;38.25;;;13.93;;
64282;SDS011;50497;50.720;-2.084;2024-03-07T06:26:27;40.08;;;13.80;;
64282;SDS011;50497;50.720;-2.084;2024-03-07T06:29:03;38.75;;;12.95;;
64282;SDS011;50497;50.720;-2.084;2024-03-07T06:31:30;37.03;;;12.68;;
64282;SDS011;50497;50.720;-2.084;2024-03-07T06:33:56;36.88;;;14.02;;
64282;SDS011;50497;50.720;-2.084;2024-03-07T06:36:22;40.53;;;13.98;;
64282;SDS011;50497;50.720;-2.084;2024-03-07T06:38:47;39.50;;;13.38;;
64282;SDS011;50497;50.720;-2.084;2024-03-07T06:41:13;36.85;;;12.90;;
64282;SDS011;50497;50.720;-2.084;2024-03-07T06:43:39;38.00;;;14.23;;
64282;SDS011;50497;50.720;-2.084;2024-03-07T06:46:04;32.30;;;11.52;;
64282;SDS011;50497;50.720;-2.084;2024-03-07T06:48:31;34.80;;;13.40;;
64282;SDS011;50497;50.720;-2.084;2024-03-07T06:50:56;37.50;;;14.65;;
64282;SDS011;50497;50.720;-2.084;2024-03-07T06:53:22;39.63;;;14.13;;
64282;SDS011;50497;50.720;-2.084;2024-03-07T06:55:51;38.78;;;14.50;;
64282;SDS011;50497;50.720;-2.084;2024-03-07T06:58:18;36.28;;;14.77;;
64282;SDS011;50497;50.720;-2.084;2024-03-07T07:00:47;37.60;;;13.90;;
64282;SDS011;50497;50.720;-2.084;2024-03-07T07:03:12;39.50;;;14.48;;
64282;SDS011;50497;50.720;-2.084;2024-03-07T07:05:39;41.80;;;15.32;;
64282;SDS011;50497;50.720;-2.084;2024-03-07T07:08:07;30.73;;;10.68;;
64282;SDS011;50497;50.720;-2.084;2024-03-07T07:10:34;36.17;;;12.70;;
64282;SDS011;50497;50.720;-2.084;2024-03-07T07:13:00;33.28;;;12.02;;
64282;SDS011;50497;50.720;-2.084;2024-03-07T07:15:26;33.90;;;13.18;;
64282;SDS011;50497;50.720;-2.084;2024-03-07T07:17:51;35.60;;;13.25;;
64282;SDS011;50497;50.720;-2.084;2024-03-07T07:20:17;40.17;;;14.43;;
64282;SDS011;50497;50.720;-2.084;2024-03-07T07:22:44;38.58;;;14.27;;
64282;SDS011;50497;50.720;-2.084;2024-03-07T07:25:14;41.35;;;14.57;;
64282;SDS011;50497;50.720;-2.084;2024-03-07T07:27:46;37.63;;;14.07;;
64282;SDS011;50497;50.720;-2.084;2024-03-07T07:30:13;43.15;;;15.55;;
64282;SDS011;50497;50.720;-2.084;2024-03-07T07:32:40;39.55;;;13.77;;
64282;SDS011;50497;50.720;-2.084;2024-03-07T07:35:06;39.47;;;15.68;;
64282;SDS011;50497;50.720;-2.084;2024-03-07T07:37:36;42.63;;;15.13;;
64282;SDS011;50497;50.720;-2.084;2024-03-07T07:40:02;42.03;;;14.77;;
64282;SDS011;50497;50.720;-2.084;2024-03-07T07:42:28;43.03;;;14.48;;
64282;SDS011;50497;50.720;-2.084;2024-03-07T07:44:54;42.80;;;14.07;;
64282;SDS011;50497;50.720;-2.084;2024-03-07T07:47:19;42.92;;;14.82;;
64282;SDS011;50497;50.720;-2.084;2024-03-07T07:49:45;41.70;;;13.43;;
64282;SDS011;50497;50.720;-2.084;2024-03-07T07:52:10;45.67;;;15.48;;
64282;SDS011;50497;50.720;-2.084;2024-03-07T07:54:40;44.92;;;15.23;;
64282;SDS011;50497;50.720;-2.084;2024-03-07T07:57:06;40.95;;;15.35;;
64282;SDS011;50497;50.720;-2.084;2024-03-07T07:59:31;45.28;;;14.95;;
64282;SDS011;50497;50.720;-2.084;2024-03-07T08:01:57;42.30;;;14.70;;
64282;SDS011;50497;50.720;-2.084;2024-03-07T08:04:23;39.95;;;14.02;;
64282;SDS011;50497;50.720;-2.084;2024-03-07T08:06:48;37.60;;;13.75;;
64282;SDS011;50497;50.720;-2.084;2024-03-07T08:09:14;44.90;;;16.35;;
64282;SDS011;50497;50.720;-2.084;2024-03-07T08:11:41;47.40;;;15.80;;
64282;SDS011;50497;50.720;-2.084;2024-03-07T08:14:07;36.53;;;13.35;;
64282;SDS011;50497;50.720;-2.084;2024-03-07T08:16:33;41.65;;;13.82;;
64282;SDS011;50497;50.720;-2.084;2024-03-07T08:18:58;42.45;;;15.02;;
64282;SDS011;50497;50.720;-2.084;2024-03-07T08:21:24;44.15;;;15.00;;
64282;SDS011;50497;50.720;-2.084;2024-03-07T08:23:49;41.00;;;14.32;;
64282;SDS011;50497;50.720;-2.084;2024-03-07T08:26:15;41.97;;;13.88;;
64282;SDS011;50497;50.720;-2.084;2024-03-07T08:28:42;36.97;;;13.23;;
64282;SDS011;50497;50.720;-2.084;2024-03-07T08:31:08;39.13;;;14.63;;
64282;SDS011;50497;50.720;-2.084;2024-03-07T08:33:34;46.50;;;14.52;;
64282;SDS011;50497;50.720;-2.084;2024-03-07T08:35:59;40.10;;;14.50;;
64282;SDS011;50497;50.720;-2.084;2024-03-07T08:38:26;35.95;;;13.02;;
64282;SDS011;50497;50.720;-2.084;2024-03-07T08:40:51;38.38;;;14.35;;
64282;SDS011;50497;50.720;-2.084;2024-03-07T08:43:17;34.25;;;12.50;;
64282;SDS011;50497;50.720;-2.084;2024-03-07T08:45:42;36.25;;;13.23;;
64282;SDS011;50497;50.720;-2.084;2024-03-07T08:48:08;33.83;;;12.38;;
64282;SDS011;50497;50.720;-2.084;2024-03-07T08:50:38;32.05;;;11.55;;
64282;SDS011;50497;50.720;-2.084;2024-03-07T08:53:03;30.35;;;12.68;;
64282;SDS011;50497;50.720;-2.084;2024-03-07T08:55:29;31.70;;;12.00;;
64282;SDS011;50497;50.720;-2.084;2024-03-07T08:57:55;29.27;;;9.77;;
64282;SDS011;50497;50.720;-2.084;2024-03-07T09:00:21;31.08;;;11.30;;
64282;SDS011;50497;50.720;-2.084;2024-03-07T09:02:54;32.65;;;12.38;;
64282;SDS011;50497;50.720;-2.084;2024-03-07T09:05:23;32.30;;;11.93;;
64282;SDS011;50497;50.720;-2.084;2024-03-07T09:07:49;33.08;;;12.77;;
64282;SDS011;50497;50.720;-2.084;2024-03-07T09:12:42;33.90;;;12.20;;
64282;SDS011;50497;50.720;-2.084;2024-03-07T09:15:09;32.67;;;11.90;;
64282;SDS011;50497;50.720;-2.084;2024-03-07T09:17:38;25.35;;;9.48;;
64282;SDS011;50497;50.720;-2.084;2024-03-07T09:20:07;25.92;;;10.13;;
64282;SDS011;50497;50.720;-2.084;2024-03-07T09:22:42;22.13;;;9.60;;
64282;SDS011;50497;50.720;-2.084;2024-03-07T09:25:12;19.02;;;7.82;;
64282;SDS011;50497;50.720;-2.084;2024-03-07T09:27:38;22.42;;;9.30;;
64282;SDS011;50497;50.720;-2.084;2024-03-07T09:30:05;22.25;;;9.38;;
64282;SDS011;50497;50.720;-2.084;2024-03-07T09:32:36;19.63;;;8.55;;
64282;SDS011;50497;50.720;-2.084;2024-03-07T09:35:11;22.17;;;10.10;;
64282;SDS011;50497;50.720;-2.084;2024-03-07T09:37:42;20.83;;;9.52;;
64282;SDS011;50497;50.720;-2.084;2024-03-07T09:40:08;21.48;;;9.60;;
64282;SDS011;50497;50.720;-2.084;2024-03-07T09:42:37;23.85;;;10.32;;
64282;SDS011;50497;50.720;-2.084;2024-03-07T09:45:08;28.38;;;11.15;;
64282;SDS011;50497;50.720;-2.084;2024-03-07T09:47:38;19.92;;;8.48;;
64282;SDS011;50497;50.720;-2.084;2024-03-07T09:50:04;18.67;;;8.88;;
64282;SDS011;50497;50.720;-2.084;2024-03-07T09:52:33;21.00;;;8.60;;
64282;SDS011;50497;50.720;-2.084;2024-03-07T09:55:00;18.92;;;7.90;;
64282;SDS011;50497;50.720;-2.084;2024-03-07T09:57:25;19.90;;;8.75;;
64282;SDS011;50497;50.720;-2.084;2024-03-07T09:59:52;22.70;;;8.88;;
64282;SDS011;50497;50.720;-2.084;2024-03-07T10:02:19;17.73;;;8.25;;
64282;SDS011;50497;50.720;-2.084;2024-03-07T10:04:48;19.17;;;8.93;;
64282;SDS011;50497;50.720;-2.084;2024-03-07T10:07:17;18.35;;;7.43;;
64282;SDS011;50497;50.720;-2.084;2024-03-07T10:09:43;22.25;;;8.20;;
64282;SDS011;50497;50.720;-2.084;2024-03-07T10:12:09;22.63;;;8.50;;
64282;SDS011;50497;50.720;-2.084;2024-03-07T10:14:37;19.30;;;7.70;;
64282;SDS011;50497;50.720;-2.084;2024-03-07T10:17:03;19.58;;;8.05;;
64282;SDS011;50497;50.720;-2.084;2024-03-07T10:19:29;16.17;;;7.13;;
64282;SDS011;50497;50.720;-2.084;2024-03-07T10:21:55;19.52;;;8.10;;
64282;SDS011;50497;50.720;-2.084;2024-03-07T10:24:26;16.50;;;7.45;;
64282;SDS011;50497;50.720;-2.084;2024-03-07T10:26:53;17.02;;;6.78;;
64282;SDS011;50497;50.720;-2.084;2024-03-07T10:29:21;15.20;;;5.55;;
64282;SDS011;50497;50.720;-2.084;2024-03-07T10:31:48;14.05;;;5.88;;
64282;SDS011;50497;50.720;-2.084;2024-03-07T10:34:14;13.52;;;6.00;;
64282;SDS011;50497;50.720;-2.084;2024-03-07T10:36:42;12.43;;;4.97;;
64282;SDS011;50497;50.720;-2.084;2024-03-07T10:39:11;11.07;;;4.80;;
64282;SDS011;50497;50.720;-2.084;2024-03-07T10:44:15;10.93;;;5.35;;
64282;SDS011;50497;50.720;-2.084;2024-03-07T10:46:46;11.75;;;5.13;;
64282;SDS011;50497;50.720;-2.084;2024-03-07T10:49:18;12.25;;;5.15;;
64282;SDS011;50497;50.720;-2.084;2024-03-07T10:51:48;12.13;;;5.22;;
64282;SDS011;50497;50.720;-2.084;2024-03-07T10:54:43;10.50;;;5.05;;
64282;SDS011;50497;50.720;-2.084;2024-03-07T10:57:23;9.82;;;4.93;;
64282;SDS011;50497;50.720;-2.084;2024-03-07T10:59:57;11.48;;;5.20;;
64282;SDS011;50497;50.720;-2.084;2024-03-07T11:02:57;12.77;;;5.35;;
64282;SDS011;50497;50.720;-2.084;2024-03-07T11:05:25;11.93;;;5.07;;
64282;SDS011;50497;50.720;-2.084;2024-03-07T11:10:45;9.68;;;4.40;;
64282;SDS011;50497;50.720;-2.084;2024-03-07T11:15:39;11.38;;;5.00;;
64282;SDS011;50497;50.720;-2.084;2024-03-07T11:18:07;9.90;;;4.18;;
64282;SDS011;50497;50.720;-2.084;2024-03-07T11:20:35;10.05;;;4.70;;
64282;SDS011;50497;50.720;-2.084;2024-03-07T11:23:24;13.10;;;4.63;;
64282;SDS011;50497;50.720;-2.084;2024-03-07T11:26:01;13.20;;;4.60;;
64282;SDS011;50497;50.720;-2.084;2024-03-07T11:28:30;12.10;;;4.68;;
64282;SDS011;50497;50.720;-2.084;2024-03-07T11:31:06;11.18;;;4.22;;
64282;SDS011;50497;50.720;-2.084;2024-03-07T11:33:36;9.68;;;4.22;;
64282;SDS011;50497;50.720;-2.084;2024-03-07T11:36:06;9.88;;;4.35;;
64282;SDS011;50497;50.720;-2.084;2024-03-07T11:38:37;10.38;;;4.30;;
64282;SDS011;50497;50.720;-2.084;2024-03-07T11:41:03;13.40;;;4.55;;
64282;SDS011;50497;50.720;-2.084;2024-03-07T11:43:31;8.52;;;3.83;;
64282;SDS011;50497;50.720;-2.084;2024-03-07T11:45:58;9.65;;;4.10;;
64282;SDS011;50497;50.720;-2.084;2024-03-07T11:48:24;9.63;;;3.65;;
64282;SDS011;50497;50.720;-2.084;2024-03-07T11:50:49;9.30;;;3.88;;
64282;SDS011;50497;50.720;-2.084;2024-03-07T11:53:16;10.45;;;4.57;;
64282;SDS011;50497;50.720;-2.084;2024-03-07T11:55:42;11.10;;;3.88;;
64282;SDS011;50497;50.720;-2.084;2024-03-07T11:58:12;10.48;;;4.00;;
64282;SDS011;50497;50.720;-2.084;2024-03-07T12:00:44;10.55;;;4.13;;
64282;SDS011;50497;50.720;-2.084;2024-03-07T12:03:14;9.15;;;3.58;;
64282;SDS011;50497;50.720;-2.084;2024-03-07T12:05:42;9.43;;;3.75;;
64282;SDS011;50497;50.720;-2.084;2024-03-07T12:08:11;9.00;;;3.67;;
64282;SDS011;50497;50.720;-2.084;2024-03-07T12:10:39;9.50;;;3.78;;
64282;SDS011;50497;50.720;-2.084;2024-03-07T12:15:40;7.80;;;3.40;;
64282;SDS011;50497;50.720;-2.084;2024-03-07T12:18:07;7.03;;;3.10;;
64282;SDS011;50497;50.720;-2.084;2024-03-07T12:20:38;6.78;;;3.40;;
64282;SDS011;50497;50.720;-2.084;2024-03-07T12:23:06;7.60;;;3.17;;
64282;SDS011;50497;50.720;-2.084;2024-03-07T12:25:33;6.63;;;3.20;;
64282;SDS011;50497;50.720;-2.084;2024-03-07T12:28:12;9.20;;;3.13;;
64282;SDS011;50497;50.720;-2.084;2024-03-07T12:30:54;9.45;;;3.03;;
64282;SDS011;50497;50.720;-2.084;2024-03-07T12:33:21;8.07;;;2.88;;
64282;SDS011;50497;50.720;-2.084;2024-03-07T12:35:53;7.57;;;3.00;;
64282;SDS011;50497;50.720;-2.084;2024-03-07T12:38:25;8.13;;;3.00;;
64282;SDS011;50497;50.720;-2.084;2024-03-07T12:41:06;7.60;;;3.00;;
64282;SDS011;50497;50.720;-2.084;2024-03-07T12:43:38;7.90;;;2.92;;
64282;SDS011;50497;50.720;-2.084;2024-03-07T12:46:07;8.40;;;3.03;;
64282;SDS011;50497;50.720;-2.084;2024-03-07T12:48:36;6.82;;;2.78;;
64282;SDS011;50497;50.720;-2.084;2024-03-07T12:51:03;8.75;;;3.17;;
64282;SDS011;50497;50.720;-2.084;2024-03-07T12:53:30;8.52;;;3.03;;
64282;SDS011;50497;50.720;-2.084;2024-03-07T12:55:56;8.15;;;3.10;;
64282;SDS011;50497;50.720;-2.084;2024-03-07T12:58:22;6.60;;;2.40;;
64282;SDS011;50497;50.720;-2.084;2024-03-07T13:00:50;8.77;;;3.25;;
64282;SDS011;50497;50.720;-2.084;2024-03-07T13:05:42;8.10;;;2.80;;
64282;SDS011;50497;50.720;-2.084;2024-03-07T13:08:08;9.07;;;2.90;;
64282;SDS011;50497;50.720;-2.084;2024-03-07T13:10:46;9.48;;;2.70;;
64282;SDS011;50497;50.720;-2.084;2024-03-07T13:13:11;7.70;;;2.83;;
64282;SDS011;50497;50.720;-2.084;2024-03-07T13:15:37;7.93;;;2.65;;
64282;SDS011;50497;50.720;-2.084;2024-03-07T13:20:30;7.30;;;2.78;;
64282;SDS011;50497;50.720;-2.084;2024-03-07T13:22:55;5.97;;;2.42;;
64282;SDS011;50497;50.720;-2.084;2024-03-07T13:27:57;7.57;;;3.05;;
64282;SDS011;50497;50.720;-2.084;2024-03-07T13:30:27;8.60;;;2.45;;
64282;SDS011;50497;50.720;-2.084;2024-03-07T13:32:54;6.40;;;2.30;;
64282;SDS011;50497;50.720;-2.084;2024-03-07T13:35:24;6.25;;;2.33;;
64282;SDS011;50497;50.720;-2.084;2024-03-07T13:37:51;8.43;;;2.65;;
64282;SDS011;50497;50.720;-2.084;2024-03-07T13:40:20;9.27;;;2.72;;
64282;SDS011;50497;50.720;-2.084;2024-03-07T13:42:50;8.10;;;2.80;;
64282;SDS011;50497;50.720;-2.084;2024-03-07T13:45:21;6.35;;;2.45;;
64282;SDS011;50497;50.720;-2.084;2024-03-07T13:47:48;7.05;;;2.72;;
64282;SDS011;50497;50.720;-2.084;2024-03-07T13:50:15;7.38;;;2.95;;
64282;SDS011;50497;50.720;-2.084;2024-03-07T13:52:41;6.68;;;2.60;;
64282;SDS011;50497;50.720;-2.084;2024-03-07T13:55:19;7.68;;;2.88;;
64282;SDS011;50497;50.720;-2.084;2024-03-07T13:57:49;7.32;;;2.72;;
64282;SDS011;50497;50.720;-2.084;2024-03-07T14:00:35;8.55;;;3.22;;
64282;SDS011;50497;50.720;-2.084;2024-03-07T14:08:24;13.02;;;4.65;;
64282;SDS011;50497;50.720;-2.084;2024-03-07T14:17:06;18.92;;;7.65;;
64282;SDS011;50497;50.720;-2.084;2024-03-07T14:20:15;21.77;;;9.55;;
64282;SDS011;50497;50.720;-2.084;2024-03-07T14:31:24;3.63;;;2.58;;
64282;SDS011;50497;50.720;-2.084;2024-03-07T14:36:37;0.10;;;0.10;;
64282;SDS011;50497;50.720;-2.084;2024-03-07T14:39:06;0.00;;;0.00;;
64282;SDS011;50497;50.720;-2.084;2024-03-07T14:44:22;0.00;;;0.00;;
64282;SDS011;50497;50.720;-2.084;2024-03-07T14:46:50;0.00;;;0.00;;
64282;SDS011;50497;50.720;-2.084;2024-03-07T14:49:18;0.13;;;0.13;;
64282;SDS011;50497;50.720;-2.084;2024-03-07T14:51:44;0.00;;;0.00;;
64282;SDS011;50497;50.720;-2.084;2024-03-07T14:54:11;0.00;;;0.00;;
64282;SDS011;50497;50.720;-2.084;2024-03-07T14:56:37;0.00;;;0.00;;
64282;SDS011;50497;50.720;-2.084;2024-03-07T14:59:02;0.10;;;0.10;;
64282;SDS011;50497;50.720;-2.084;2024-03-07T15:01:29;0.00;;;0.00;;
64282;SDS011;50497;50.720;-2.084;2024-03-07T15:03:56;0.00;;;0.00;;
64282;SDS011;50497;50.720;-2.084;2024-03-07T15:06:22;1.55;;;1.45;;
64282;SDS011;50497;50.720;-2.084;2024-03-07T15:08:48;1.40;;;1.30;;
64282;SDS011;50497;50.720;-2.084;2024-03-07T15:11:47;0.10;;;0.10;;